Terminal Aerodrome Forecast
Issued by NWS

Home | Current Version | Previous Version | Text Only | Print | Product List | Glossary Off
Versions: 1 2 3 4 5 6 7 8 9 10 11 12 13

000
FTUS43 KBIS 191700
TAFDIK
TAF
KDIK 191739Z 1918/2018 29017G28KT P6SM FEW120
     FM200200 30009KT P6SM SCT080
     FM201100 26008KT P6SM SCT250
     FM201500 28012KT P6SM SCT070=

USA.gov is the U.S. government's official web portal to all federal, state and local government web resources and services.